Time;durP1;ratioP1;P1;durP2;ratioP2;P2;SDS_P1;SDS_P2;PMS_P1;PMS_P2;Temp;Humidity;BMP_temperature;BMP_pressure;BME280_temperature;BME280_humidity;BME280_pressure;Samples;Min_cycle;Max_cycle;Signal;HPM_P1;HPM_P2
2023/08/02 00:02:14;;;;;;;7.05;3.05;;;21.50;99.90;;;;;;4961642;28;20560;-75
2023/08/02 00:04:41;;;;;;;4.90;2.78;;;21.40;99.90;;;;;;4966094;28;20030;-76
2023/08/02 00:07:07;;;;;;;4.85;3.08;;;21.50;99.90;;;;;;4967912;28;20026;-76
2023/08/02 00:09:33;;;;;;;4.13;2.20;;;21.50;99.90;;;;;;4959844;28;20473;-75
2023/08/02 00:11:59;;;;;;;4.68;2.65;;;21.50;99.90;;;;;;4960012;28;20079;-75
2023/08/02 00:14:25;;;;;;;6.68;2.47;;;21.50;99.90;;;;;;4965048;28;20031;-76
2023/08/02 00:16:51;;;;;;;4.82;2.83;;;21.50;99.90;;;;;;4969912;28;20073;-76
2023/08/02 00:19:17;;;;;;;5.75;2.70;;;21.50;99.90;;;;;;4961790;28;20058;-76
2023/08/02 00:21:43;;;;;;;3.65;2.22;;;21.50;99.90;;;;;;4962863;28;20035;-76
2023/08/02 00:24:10;;;;;;;5.75;2.92;;;21.50;99.90;;;;;;4976185;28;20033;-76
2023/08/02 00:26:36;;;;;;;4.10;2.42;;;21.40;99.90;;;;;;4970988;28;20039;-76
2023/08/02 00:29:02;;;;;;;4.32;2.30;;;21.30;99.90;;;;;;4962519;28;20024;-76
2023/08/02 00:31:28;;;;;;;5.07;2.03;;;21.30;99.90;;;;;;4968926;28;20082;-76
2023/08/02 00:33:53;;;;;;;4.00;2.20;;;21.20;99.90;;;;;;4972218;28;20385;-76
2023/08/02 00:36:19;;;;;;;5.28;1.75;;;21.20;99.90;;;;;;4968307;28;20551;-75
2023/08/02 00:38:45;;;;;;;6.28;1.70;;;21.20;99.90;;;;;;4970358;28;20031;-75
2023/08/02 00:41:10;;;;;;;6.82;1.98;;;21.20;99.90;;;;;;4973493;28;20476;-76
2023/08/02 00:43:43;;;;;;;4.35;2.17;;;21.20;99.90;;;;;;4956065;28;20031;-76
2023/08/02 00:46:10;;;;;;;4.47;2.40;;;21.20;99.90;;;;;;4972975;28;20039;-76
2023/08/02 00:48:37;;;;;;;4.07;1.90;;;21.20;99.90;;;;;;4968298;28;20109;-75
2023/08/02 00:51:04;;;;;;;5.63;2.33;;;21.20;99.90;;;;;;4969679;28;20119;-76
2023/08/02 00:53:30;;;;;;;6.05;2.40;;;21.20;99.90;;;;;;4965815;28;20114;-76
2023/08/02 00:55:57;;;;;;;5.05;1.85;;;21.10;99.90;;;;;;4967853;28;20125;-76
2023/08/02 00:58:23;;;;;;;5.15;2.33;;;21.10;99.90;;;;;;4971979;28;20023;-75
2023/08/02 01:00:48;;;;;;;4.20;2.30;;;21.00;99.90;;;;;;4975812;28;20050;-75
2023/08/02 01:03:14;;;;;;;4.40;2.50;;;21.00;99.90;;;;;;4970433;28;20540;-75
2023/08/02 01:05:56;;;;;;;6.03;2.22;;;21.00;99.90;;;;;;4969606;28;20030;-76
2023/08/02 01:08:29;;;;;;;3.72;2.13;;;20.90;99.90;;;;;;4970047;28;20038;-76
2023/08/02 01:11:19;;;;;;;5.20;2.35;;;20.90;99.90;;;;;;4967048;28;20030;-76
2023/08/02 01:13:50;;;;;;;5.70;2.60;;;20.80;99.90;;;;;;4974939;28;20484;-76
2023/08/02 01:16:17;;;;;;;4.93;2.65;;;20.70;99.90;;;;;;4969847;28;20046;-76
2023/08/02 01:18:43;;;;;;;7.68;2.60;;;20.50;99.90;;;;;;4968174;28;20037;-76
2023/08/02 01:21:09;;;;;;;6.78;2.80;;;20.30;99.90;;;;;;4975670;28;20030;-75
2023/08/02 01:23:34;;;;;;;9.68;3.25;;;20.20;99.90;;;;;;4966842;28;20050;-76
2023/08/02 01:26:02;;;;;;;6.60;2.67;;;20.20;99.90;;;;;;4967322;28;20461;-76
2023/08/02 01:28:32;;;;;;;7.13;2.50;;;20.20;99.90;;;;;;4972288;28;20461;-76
2023/08/02 01:31:00;;;;;;;5.18;2.90;;;20.20;99.90;;;;;;4967445;28;20062;-75
2023/08/02 01:33:27;;;;;;;4.68;2.70;;;20.10;99.90;;;;;;4966009;28;20032;-75
2023/08/02 01:35:53;;;;;;;7.35;2.88;;;20.10;99.90;;;;;;4966468;28;20049;-76
2023/08/02 01:38:18;;;;;;;5.85;3.78;;;20.20;99.90;;;;;;4959659;28;20031;-75
2023/08/02 01:40:44;;;;;;;7.32;3.33;;;20.20;99.90;;;;;;4961297;28;20090;-75
2023/08/02 01:43:10;;;;;;;7.47;3.42;;;20.10;99.90;;;;;;4966434;28;20132;-75
2023/08/02 01:45:35;;;;;;;5.05;3.08;;;20.00;99.90;;;;;;4969744;28;20069;-75
2023/08/02 01:48:01;;;;;;;4.78;2.95;;;20.00;99.90;;;;;;4966245;28;20030;-75
2023/08/02 01:50:27;;;;;;;5.53;3.08;;;19.90;99.90;;;;;;4967946;28;20031;-76
2023/08/02 01:52:52;;;;;;;5.28;3.30;;;20.00;99.90;;;;;;4972315;28;20034;-76
2023/08/02 01:55:19;;;;;;;7.20;3.70;;;19.90;99.90;;;;;;4965873;28;20077;-75
2023/08/02 01:57:44;;;;;;;6.90;3.42;;;19.80;99.90;;;;;;4964275;28;20129;-76
2023/08/02 02:00:12;;;;;;;6.43;3.78;;;19.80;99.90;;;;;;4967640;28;20420;-76
2023/08/02 02:02:37;;;;;;;9.80;3.70;;;19.80;99.90;;;;;;4963393;28;20042;-75
2023/08/02 02:05:04;;;;;;;6.78;3.38;;;19.60;99.90;;;;;;4969731;28;20032;-76
2023/08/02 02:07:29;;;;;;;6.93;3.35;;;19.50;99.90;;;;;;4960587;28;20062;-76
2023/08/02 02:09:55;;;;;;;6.72;3.28;;;19.50;99.90;;;;;;4963949;28;20101;-76
2023/08/02 02:12:20;;;;;;;5.35;3.38;;;19.50;99.90;;;;;;4967771;28;20035;-75
2023/08/02 02:14:46;;;;;;;4.80;2.85;;;19.40;99.90;;;;;;4968268;28;20031;-75
2023/08/02 02:17:12;;;;;;;7.80;4.13;;;19.20;99.90;;;;;;4968516;28;20093;-75
2023/08/02 02:19:37;;;;;;;6.32;3.60;;;19.20;99.90;;;;;;4966583;28;20082;-76
2023/08/02 02:22:03;;;;;;;6.13;3.03;;;19.30;99.90;;;;;;4965337;28;20049;-75
2023/08/02 02:24:29;;;;;;;7.53;3.45;;;19.40;99.90;;;;;;4954862;28;20097;-74
2023/08/02 02:26:55;;;;;;;4.85;3.05;;;19.50;99.90;;;;;;4966007;28;20058;-74
2023/08/02 02:29:20;;;;;;;5.43;2.95;;;19.50;99.90;;;;;;4962545;28;20042;-74
2023/08/02 02:31:46;;;;;;;4.60;2.85;;;19.50;99.90;;;;;;4958540;28;20039;-74
2023/08/02 02:34:11;;;;;;;6.22;3.30;;;19.40;99.90;;;;;;4962443;28;20045;-75
2023/08/02 02:36:38;;;;;;;8.20;3.38;;;19.50;99.90;;;;;;4959818;28;20134;-75
2023/08/02 02:39:05;;;;;;;5.28;2.85;;;19.50;99.90;;;;;;4970266;28;20035;-74
2023/08/02 02:41:30;;;;;;;7.35;3.13;;;19.50;99.90;;;;;;4957752;28;20370;-74
2023/08/02 02:43:56;;;;;;;4.03;2.90;;;19.60;99.90;;;;;;4964182;28;20093;-74
2023/08/02 02:46:22;;;;;;;5.78;2.83;;;19.50;99.90;;;;;;4958422;28;20030;-74
2023/08/02 02:48:47;;;;;;;8.02;3.53;;;19.50;99.90;;;;;;4965830;28;20038;-74
2023/08/02 02:51:13;;;;;;;8.85;3.58;;;19.50;99.90;;;;;;4959502;28;20037;-75
2023/08/02 02:53:39;;;;;;;8.38;3.30;;;19.60;99.90;;;;;;4964470;28;20027;-74
2023/08/02 02:56:04;;;;;;;6.32;3.20;;;19.50;99.90;;;;;;4963993;28;20122;-75
2023/08/02 02:58:30;;;;;;;5.55;2.97;;;19.50;99.90;;;;;;4952333;28;20117;-74
2023/08/02 03:00:57;;;;;;;5.10;2.88;;;19.60;99.90;;;;;;4968585;28;20066;-75
2023/08/02 03:03:23;;;;;;;4.80;3.13;;;19.60;99.90;;;;;;4952640;28;20110;-75
2023/08/02 03:05:51;;;;;;;5.97;3.35;;;19.50;99.90;;;;;;4957854;28;20109;-75
2023/08/02 03:08:17;;;;;;;3.85;2.30;;;19.40;99.90;;;;;;4963072;28;20119;-75
2023/08/02 03:10:43;;;;;;;9.13;3.38;;;19.50;99.90;;;;;;4957514;28;20090;-75
2023/08/02 03:13:08;;;;;;;5.53;2.83;;;19.70;99.90;;;;;;4964466;28;20062;-74
2023/08/02 03:15:34;;;;;;;4.15;2.25;;;19.80;99.90;;;;;;4957717;28;20026;-74
2023/08/02 03:17:59;;;;;;;4.35;2.28;;;19.70;99.90;;;;;;4959047;28;20027;-75
2023/08/02 03:20:25;;;;;;;5.28;2.85;;;19.70;99.90;;;;;;4961343;28;20456;-74
2023/08/02 03:22:51;;;;;;;8.07;2.97;;;19.60;99.90;;;;;;4962086;28;20501;-74
2023/08/02 03:25:16;;;;;;;4.70;2.75;;;19.60;99.90;;;;;;4965289;28;20023;-74
2023/08/02 03:27:42;;;;;;;4.95;2.92;;;19.40;99.90;;;;;;4962869;28;20025;-74
2023/08/02 03:30:08;;;;;;;5.45;2.95;;;19.40;99.90;;;;;;4958250;28;20169;-74
2023/08/02 03:32:34;;;;;;;5.38;2.75;;;19.40;99.90;;;;;;4959962;28;20126;-74
2023/08/02 03:34:59;;;;;;;4.95;2.88;;;19.40;99.90;;;;;;4957928;28;20019;-74
2023/08/02 03:37:25;;;;;;;6.00;3.30;;;19.40;99.90;;;;;;4964500;28;20043;-74
2023/08/02 03:39:50;;;;;;;8.60;3.50;;;19.30;99.90;;;;;;4956173;28;20042;-74
2023/08/02 03:42:16;;;;;;;8.10;3.28;;;19.20;99.90;;;;;;4954777;28;20035;-74
2023/08/02 03:44:42;;;;;;;5.22;3.25;;;19.10;99.90;;;;;;4956722;28;20034;-74
2023/08/02 03:47:07;;;;;;;6.43;3.35;;;19.20;99.90;;;;;;4960149;28;21051;-74
2023/08/02 03:49:33;;;;;;;8.77;3.38;;;19.10;99.90;;;;;;4959071;28;20630;-75
2023/08/02 03:51:59;;;;;;;10.32;3.63;;;19.10;99.90;;;;;;4960149;28;20090;-74
2023/08/02 03:54:24;;;;;;;6.82;2.88;;;19.20;99.90;;;;;;4962249;28;20031;-74
2023/08/02 03:56:50;;;;;;;5.40;2.75;;;19.20;99.90;;;;;;4965235;28;20031;-74
2023/08/02 03:59:15;;;;;;;9.35;3.55;;;19.30;99.90;;;;;;4964491;28;20050;-75
2023/08/02 04:01:41;;;;;;;8.77;2.67;;;19.30;99.90;;;;;;4948693;28;20406;-74
2023/08/02 04:04:07;;;;;;;4.05;2.40;;;19.30;99.90;;;;;;4955679;28;20026;-75
2023/08/02 04:06:33;;;;;;;4.30;2.30;;;19.50;99.90;;;;;;4960316;28;20081;-74
2023/08/02 04:08:58;;;;;;;5.13;2.47;;;19.50;99.90;;;;;;4963550;28;20461;-74
2023/08/02 04:11:24;;;;;;;4.85;2.25;;;19.50;99.90;;;;;;4959890;28;20368;-74
2023/08/02 04:13:50;;;;;;;5.10;2.03;;;19.50;99.90;;;;;;4963466;28;20033;-74
2023/08/02 04:16:16;;;;;;;3.72;1.88;;;19.60;99.90;;;;;;4959167;28;20043;-74
2023/08/02 04:18:42;;;;;;;5.72;2.28;;;19.60;99.90;;;;;;4963058;28;20033;-74
2023/08/02 04:21:08;;;;;;;8.02;2.30;;;19.60;99.90;;;;;;4962733;28;20049;-74
2023/08/02 04:23:33;;;;;;;3.97;2.30;;;19.60;99.90;;;;;;4956463;28;20019;-76
2023/08/02 04:25:59;;;;;;;11.30;2.30;;;19.70;99.90;;;;;;4962000;28;20065;-76
2023/08/02 04:28:25;;;;;;;4.68;2.35;;;19.70;99.90;;;;;;4962351;28;20632;-76
2023/08/02 04:30:51;;;;;;;5.05;2.75;;;19.70;99.90;;;;;;4951082;28;20512;-76
2023/08/02 04:33:18;;;;;;;4.68;2.40;;;19.60;99.90;;;;;;4959106;28;20393;-75
2023/08/02 04:35:43;;;;;;;7.00;2.47;;;19.50;99.90;;;;;;4957494;28;20032;-76
2023/08/02 04:38:09;;;;;;;5.90;2.15;;;19.60;99.90;;;;;;4952118;28;20027;-76
2023/08/02 04:40:39;;;;;;;5.28;2.33;;;19.60;99.90;;;;;;4963299;28;20616;-75
2023/08/02 04:43:05;;;;;;;3.53;2.30;;;19.40;99.90;;;;;;4957521;28;20620;-76
2023/08/02 04:45:30;;;;;;;4.35;1.85;;;19.40;99.90;;;;;;4964891;28;20035;-76
2023/08/02 04:47:56;;;;;;;7.60;2.92;;;19.30;99.90;;;;;;4957902;28;20071;-76
2023/08/02 04:50:22;;;;;;;7.97;3.15;;;19.40;99.90;;;;;;4958281;28;20054;-75
2023/08/02 04:52:47;;;;;;;3.50;1.98;;;19.40;99.90;;;;;;4964781;28;20035;-76
2023/08/02 04:55:13;;;;;;;4.15;2.22;;;19.50;99.90;;;;;;4965632;28;20382;-75
2023/08/02 04:57:39;;;;;;;4.40;2.03;;;19.60;99.90;;;;;;4956702;28;20074;-75
2023/08/02 05:00:06;;;;;;;6.53;1.92;;;19.60;99.90;;;;;;4958916;28;20054;-76
2023/08/02 05:02:36;;;;;;;4.40;2.42;;;19.60;99.90;;;;;;4958188;28;20038;-76
2023/08/02 05:05:02;;;;;;;5.07;1.98;;;19.60;99.90;;;;;;4951217;28;20046;-75
2023/08/02 05:07:34;;;;;;;4.07;1.90;;;19.60;99.90;;;;;;4962945;28;20527;-76
2023/08/02 05:10:03;;;;;;;3.58;1.60;;;19.70;99.90;;;;;;4968140;28;20023;-76
2023/08/02 05:12:34;;;;;;;3.63;2.05;;;19.70;99.90;;;;;;4961894;28;20042;-75
2023/08/02 05:14:59;;;;;;;3.17;1.60;;;19.70;99.90;;;;;;4961006;28;20750;-75
2023/08/02 05:17:29;;;;;;;5.45;1.95;;;19.60;99.90;;;;;;4968059;28;20122;-75
2023/08/02 05:19:54;;;;;;;5.10;2.00;;;19.60;99.90;;;;;;4967645;28;20027;-76
2023/08/02 05:22:20;;;;;;;5.43;1.80;;;19.60;99.90;;;;;;4963108;28;20681;-76
2023/08/02 05:24:46;;;;;;;5.82;2.30;;;19.70;99.90;;;;;;4952541;28;20128;-75
2023/08/02 05:27:11;;;;;;;3.78;1.70;;;19.80;99.90;;;;;;4959424;28;20085;-76
2023/08/02 05:29:37;;;;;;;3.67;1.48;;;19.70;99.90;;;;;;4963284;28;20121;-76
2023/08/02 05:32:03;;;;;;;4.50;1.60;;;19.70;99.90;;;;;;4964724;28;20114;-76
2023/08/02 05:34:29;;;;;;;4.97;1.63;;;19.60;99.90;;;;;;4963951;28;20046;-76
2023/08/02 05:36:54;;;;;;;5.65;1.83;;;19.60;99.90;;;;;;4930847;28;20039;-76
2023/08/02 05:39:20;;;;;;;3.03;1.63;;;19.50;99.90;;;;;;4960285;28;20157;-75
2023/08/02 05:41:45;;;;;;;4.53;1.83;;;19.70;99.90;;;;;;4963253;28;20070;-75
2023/08/02 05:44:11;;;;;;;3.33;1.80;;;19.70;99.90;;;;;;4966535;28;20072;-75
2023/08/02 05:46:37;;;;;;;4.10;1.75;;;19.80;99.90;;;;;;4955233;28;20055;-76
2023/08/02 05:49:02;;;;;;;5.70;1.92;;;19.70;99.90;;;;;;4966485;28;20128;-75
2023/08/02 05:51:28;;;;;;;5.20;2.15;;;19.70;99.90;;;;;;4956357;28;20501;-76
2023/08/02 05:53:54;;;;;;;3.22;1.52;;;19.60;99.90;;;;;;4963652;28;20027;-76
2023/08/02 05:56:19;;;;;;;7.45;2.08;;;19.70;99.90;;;;;;4952360;28;20050;-76
2023/08/02 05:58:45;;;;;;;5.03;1.85;;;19.80;99.90;;;;;;4956971;28;20041;-76
2023/08/02 06:01:11;;;;;;;4.90;2.00;;;19.90;99.90;;;;;;4961767;28;20054;-75
2023/08/02 06:03:36;;;;;;;4.70;1.80;;;20.00;99.90;;;;;;4954979;28;20027;-75
2023/08/02 06:06:02;;;;;;;4.95;2.40;;;20.10;99.90;;;;;;4957096;28;20134;-75
2023/08/02 06:08:28;;;;;;;4.55;1.80;;;20.20;99.90;;;;;;4952979;28;20604;-76
2023/08/02 06:10:54;;;;;;;5.93;2.10;;;20.40;99.90;;;;;;4958837;28;20682;-75
2023/08/02 06:13:20;;;;;;;4.75;1.88;;;20.40;99.90;;;;;;4955700;28;20038;-76
2023/08/02 06:15:45;;;;;;;5.07;1.80;;;20.20;99.90;;;;;;4952779;28;20166;-75
2023/08/02 06:18:11;;;;;;;5.82;2.00;;;20.10;99.90;;;;;;4961599;28;20113;-75
2023/08/02 06:20:37;;;;;;;3.55;1.58;;;20.10;99.90;;;;;;4957013;28;20034;-75
2023/08/02 06:23:02;;;;;;;5.20;2.00;;;20.10;99.90;;;;;;4964529;28;20066;-76
2023/08/02 06:25:28;;;;;;;5.10;1.60;;;20.20;99.90;;;;;;4952777;28;20035;-76
2023/08/02 06:27:54;;;;;;;6.82;1.70;;;20.20;99.90;;;;;;4947576;28;20181;-75
2023/08/02 06:30:20;;;;;;;4.20;1.95;;;20.40;99.90;;;;;;4948524;28;20949;-76
2023/08/02 06:32:46;;;;;;;6.05;1.85;;;20.50;99.90;;;;;;4946319;28;20422;-75
2023/08/02 06:35:12;;;;;;;2.83;1.48;;;20.60;99.90;;;;;;4960094;28;20035;-76
2023/08/02 06:37:38;;;;;;;7.93;2.17;;;20.50;99.90;;;;;;4963710;28;20042;-75
2023/08/02 06:40:04;;;;;;;5.43;2.25;;;20.50;99.90;;;;;;4953247;28;20454;-76
2023/08/02 06:42:29;;;;;;;5.85;2.17;;;20.50;99.90;;;;;;4950704;28;20432;-76
2023/08/02 06:44:57;;;;;;;6.53;1.90;;;20.70;99.90;;;;;;4955654;28;20059;-75
2023/08/02 06:47:22;;;;;;;5.53;2.10;;;21.00;99.90;;;;;;4950800;28;20023;-75
2023/08/02 06:49:48;;;;;;;6.25;2.42;;;21.20;99.90;;;;;;4960202;28;20041;-76
2023/08/02 06:52:14;;;;;;;4.82;2.15;;;21.40;99.90;;;;;;4960439;28;20050;-76
2023/08/02 06:54:40;;;;;;;5.38;2.00;;;21.50;99.90;;;;;;4956722;28;20050;-76
2023/08/02 06:57:06;;;;;;;5.35;1.85;;;21.40;99.90;;;;;;4956313;28;20035;-76
2023/08/02 06:59:31;;;;;;;3.13;1.73;;;21.40;99.90;;;;;;4943742;28;20039;-76
2023/08/02 07:01:57;;;;;;;3.35;1.38;;;21.40;99.90;;;;;;4948179;28;20061;-77
2023/08/02 07:04:22;;;;;;;9.63;1.88;;;21.30;99.90;;;;;;4945514;28;20371;-75
2023/08/02 07:06:48;;;;;;;4.90;2.05;;;21.10;99.90;;;;;;4946583;28;20552;-76
2023/08/02 07:09:14;;;;;;;12.82;2.38;;;21.10;99.90;;;;;;4947880;28;20035;-76
2023/08/02 07:11:40;;;;;;;5.72;1.70;;;21.00;99.90;;;;;;4945657;28;20142;-76
2023/08/02 07:14:06;;;;;;;3.88;1.67;;;20.90;99.90;;;;;;4926180;29;20540;-76
2023/08/02 07:16:32;;;;;;;5.07;2.03;;;20.80;99.90;;;;;;4945215;28;20536;-76
2023/08/02 07:19:00;;;;;;;7.20;2.28;;;20.70;99.90;;;;;;4946684;28;20037;-76
2023/08/02 07:21:25;;;;;;;4.25;2.25;;;20.70;99.90;;;;;;4947275;28;20027;-76
2023/08/02 07:23:51;;;;;;;3.47;1.88;;;20.70;99.90;;;;;;4941303;28;20039;-76
2023/08/02 07:26:17;;;;;;;4.35;2.10;;;20.80;99.90;;;;;;4940759;28;20116;-76
2023/08/02 07:28:43;;;;;;;4.55;2.35;;;20.90;99.90;;;;;;4942921;28;20031;-76
2023/08/02 07:31:10;;;;;;;3.75;1.63;;;21.00;99.90;;;;;;4942795;28;20029;-76
2023/08/02 07:33:36;;;;;;;4.70;1.60;;;21.10;99.90;;;;;;4945608;28;20047;-76
2023/08/02 07:36:03;;;;;;;5.13;2.03;;;21.60;99.90;;;;;;4946424;28;20058;-76
2023/08/02 07:38:28;;;;;;;5.63;2.17;;;23.20;99.90;;;;;;4944848;28;20384;-76
2023/08/02 07:40:55;;;;;;;6.28;2.17;;;24.60;99.90;;;;;;4943195;28;20126;-76
2023/08/02 07:43:21;;;;;;;4.85;2.05;;;23.90;99.90;;;;;;4946814;28;20042;-75
2023/08/02 07:45:46;;;;;;;5.85;1.75;;;23.30;99.90;;;;;;4942938;28;20031;-76
2023/08/02 07:48:12;;;;;;;4.65;2.15;;;22.80;99.90;;;;;;4941973;29;20133;-76
2023/08/02 07:50:39;;;;;;;6.70;1.98;;;22.40;99.90;;;;;;4943421;29;20041;-76
2023/08/02 07:53:06;;;;;;;4.55;2.33;;;22.10;99.90;;;;;;4944986;29;20031;-77
2023/08/02 07:55:32;;;;;;;8.50;2.20;;;22.10;99.90;;;;;;4945092;29;20027;-77
2023/08/02 07:58:00;;;;;;;5.63;1.73;;;22.50;99.90;;;;;;4944524;28;20065;-77
2023/08/02 08:00:26;;;;;;;3.83;1.90;;;22.60;99.90;;;;;;4947010;28;20453;-77
2023/08/02 08:02:52;;;;;;;4.45;1.80;;;22.20;99.90;;;;;;4947173;28;20035;-77
2023/08/02 08:05:18;;;;;;;4.97;1.88;;;22.30;99.90;;;;;;4947704;28;20027;-75
2023/08/02 08:07:43;;;;;;;7.78;1.88;;;22.40;99.90;;;;;;4929917;29;20028;-75
2023/08/02 08:10:09;;;;;;;4.45;2.13;;;22.30;99.90;;;;;;4947538;28;20038;-74
2023/08/02 08:12:38;;;;;;;6.30;2.03;;;22.00;99.90;;;;;;4946842;29;20035;-74
2023/08/02 08:15:05;;;;;;;6.40;2.30;;;22.00;99.90;;;;;;4944437;29;20063;-74
2023/08/02 08:17:31;;;;;;;3.40;1.73;;;22.20;99.90;;;;;;4947546;29;20043;-75
2023/08/02 08:19:56;;;;;;;3.90;1.98;;;22.50;99.90;;;;;;4943535;29;20248;-74
2023/08/02 08:22:28;;;;;;;6.35;2.45;;;22.60;99.90;;;;;;4948014;28;20118;-74
2023/08/02 08:24:54;;;;;;;4.22;1.77;;;22.40;99.90;;;;;;4947008;28;20021;-75
2023/08/02 08:27:20;;;;;;;4.47;1.90;;;22.30;99.90;;;;;;4946765;28;20035;-74
2023/08/02 08:29:46;;;;;;;6.18;1.52;;;22.30;99.90;;;;;;4948359;28;20051;-74
2023/08/02 08:32:11;;;;;;;6.78;1.80;;;22.40;99.90;;;;;;4947481;29;20030;-74
2023/08/02 08:34:37;;;;;;;3.47;2.17;;;22.50;99.90;;;;;;4946044;29;20443;-74
2023/08/02 08:37:03;;;;;;;4.13;1.65;;;22.60;99.90;;;;;;4941157;28;20041;-73
2023/08/02 08:39:29;;;;;;;3.30;1.95;;;22.50;99.90;;;;;;4948568;28;20122;-74
2023/08/02 08:41:57;;;;;;;5.68;2.05;;;22.30;99.90;;;;;;4944307;28;21647;-75
2023/08/02 08:44:22;;;;;;;4.70;1.70;;;22.30;99.90;;;;;;4948754;29;20143;-74
2023/08/02 08:46:49;;;;;;;6.88;2.22;;;22.30;99.90;;;;;;4951740;29;20505;-75
2023/08/02 08:49:15;;;;;;;4.95;1.73;;;22.10;99.90;;;;;;4950568;29;20081;-74
2023/08/02 08:51:49;;;;;;;4.32;1.63;;;21.80;99.90;;;;;;4950362;29;20031;-75
2023/08/02 08:54:23;;;;;;;7.80;1.80;;;21.60;99.90;;;;;;4949465;29;20031;-77
2023/08/02 08:56:49;;;;;;;3.88;1.70;;;21.50;99.90;;;;;;4950800;29;20067;-78
2023/08/02 08:59:16;;;;;;;4.35;1.55;;;21.60;99.90;;;;;;4951834;29;20023;-77
2023/08/02 09:01:45;;;;;;;4.82;1.55;;;21.60;99.90;;;;;;4951753;29;20071;-77
2023/08/02 09:04:11;;;;;;;4.38;1.65;;;21.60;99.90;;;;;;4951038;28;20031;-77
2023/08/02 09:06:36;;;;;;;4.47;1.90;;;21.70;99.90;;;;;;4951525;29;20027;-77
2023/08/02 09:09:03;;;;;;;4.80;1.75;;;21.80;99.90;;;;;;4950162;28;20449;-75
2023/08/02 09:11:29;;;;;;;3.22;1.70;;;22.00;99.90;;;;;;4950702;28;20667;-74
2023/08/02 09:14:15;;;;;;;5.30;1.88;;;22.30;99.90;;;;;;4949619;28;20035;-76
2023/08/02 09:16:57;;;;;;;4.88;1.88;;;22.60;99.90;;;;;;4950499;29;20046;-75
2023/08/02 09:19:27;;;;;;;6.80;1.60;;;22.50;99.90;;;;;;4949476;29;20046;-74
2023/08/02 09:22:08;;;;;;;6.13;1.65;;;22.50;99.90;;;;;;4942396;29;20035;-77
2023/08/02 09:24:39;;;;;;;6.07;1.65;;;22.80;99.90;;;;;;4939550;29;20035;-77
2023/08/02 09:27:06;;;;;;;7.75;1.85;;;23.10;99.90;;;;;;4949538;29;20031;-77
2023/08/02 09:29:47;;;;;;;3.63;1.35;;;23.60;99.90;;;;;;4948353;29;20102;-74
2023/08/02 09:32:13;;;;;;;4.47;1.40;;;23.90;99.90;;;;;;4942191;28;20039;-74
2023/08/02 09:34:47;;;;;;;3.70;1.75;;;23.80;99.90;;;;;;4944257;28;20035;-75
2023/08/02 09:37:14;;;;;;;7.15;1.77;;;23.90;99.90;;;;;;4947695;28;20035;-74
2023/08/02 09:39:47;;;;;;;4.68;1.75;;;24.00;99.90;;;;;;4944689;29;20027;-76
2023/08/02 09:42:13;;;;;;;9.02;2.05;;;24.20;99.90;;;;;;4945346;29;20061;-77
2023/08/02 09:44:42;;;;;;;7.72;1.90;;;24.60;99.90;;;;;;4946094;28;20734;-77
2023/08/02 09:47:12;;;;;;;4.80;1.73;;;24.60;99.90;;;;;;4946655;28;20431;-76
2023/08/02 09:49:39;;;;;;;9.13;2.05;;;24.20;99.90;;;;;;4946213;28;20031;-77
2023/08/02 09:52:07;;;;;;;4.13;2.05;;;24.10;99.90;;;;;;4941459;28;20057;-74
2023/08/02 09:54:32;;;;;;;6.60;1.88;;;24.00;99.90;;;;;;4939494;28;20037;-73
2023/08/02 09:56:59;;;;;;;4.07;2.00;;;24.20;99.90;;;;;;4944824;28;20153;-74
2023/08/02 09:59:30;;;;;;;4.72;2.15;;;24.30;99.90;;;;;;4945083;29;20027;-74
2023/08/02 10:01:57;;;;;;;7.65;2.58;;;24.30;99.90;;;;;;4945951;28;20023;-77
2023/08/02 10:04:25;;;;;;;5.25;1.75;;;24.40;99.90;;;;;;4946388;28;20462;-75
2023/08/02 10:07:02;;;;;;;5.55;1.70;;;24.50;99.90;;;;;;4947300;28;20055;-74
2023/08/02 10:09:35;;;;;;;8.65;2.75;;;24.70;99.90;;;;;;4949032;29;20067;-76
2023/08/02 10:12:09;;;;;;;4.38;1.83;;;25.00;99.80;;;;;;4929361;28;20039;-74
2023/08/02 10:14:35;;;;;;;5.53;1.88;;;25.20;99.90;;;;;;4946707;29;20027;-74
2023/08/02 10:17:02;;;;;;;5.70;2.40;;;25.00;99.40;;;;;;4945760;29;20043;-75
2023/08/02 10:19:29;;;;;;;5.03;1.95;;;25.00;99.90;;;;;;4949354;28;20031;-76
2023/08/02 10:21:57;;;;;;;5.80;1.85;;;25.20;99.90;;;;;;4950465;29;20035;-74
2023/08/02 10:24:28;;;;;;;5.40;2.03;;;25.40;99.80;;;;;;4964087;28;20035;-74
2023/08/02 10:26:56;;;;;;;6.55;1.83;;;25.20;99.70;;;;;;4949572;28;20027;-74
2023/08/02 10:29:25;;;;;;;7.57;2.10;;;25.20;99.90;;;;;;4948985;28;20103;-74
2023/08/02 10:31:51;;;;;;;5.72;1.98;;;24.80;99.90;;;;;;4946245;29;20032;-74
2023/08/02 10:34:35;;;;;;;4.35;1.83;;;25.10;99.90;;;;;;4944151;28;20042;-75
2023/08/02 10:37:01;;;;;;;3.90;2.13;;;25.10;99.90;;;;;;4948151;29;20047;-76
2023/08/02 10:39:45;;;;;;;4.50;2.30;;;25.30;99.90;;;;;;4947335;28;20055;-78
2023/08/02 10:42:15;;;;;;;5.40;1.48;;;25.70;99.90;;;;;;4943586;28;20047;-74
2023/08/02 10:44:56;;;;;;;3.63;1.70;;;25.60;99.90;;;;;;4944964;28;20099;-74
2023/08/02 10:47:32;;;;;;;3.75;2.00;;;25.50;99.90;;;;;;4947181;28;20035;-74
2023/08/02 10:50:00;;;;;;;6.47;2.20;;;25.40;99.80;;;;;;4947632;29;20039;-73
2023/08/02 10:52:33;;;;;;;6.18;2.38;;;25.50;99.90;;;;;;4946438;29;20059;-76
2023/08/02 10:55:17;;;;;;;6.15;2.33;;;25.30;99.60;;;;;;4946142;28;20106;-77
2023/08/02 10:57:54;;;;;;;4.78;1.80;;;25.40;99.70;;;;;;4942853;29;20035;-77
2023/08/02 11:00:24;;;;;;;4.35;2.00;;;25.70;99.60;;;;;;4945802;28;20083;-77
2023/08/02 11:02:51;;;;;;;5.63;2.08;;;26.00;99.90;;;;;;4946341;29;20031;-76
2023/08/02 11:05:48;;;;;;;4.88;2.80;;;25.90;99.90;;;;;;4947823;28;20105;-76
2023/08/02 11:08:14;;;;;;;4.47;1.83;;;26.00;99.10;;;;;;4949007;28;20118;-77
2023/08/02 11:10:48;;;;;;;5.03;1.98;;;26.00;99.10;;;;;;4944963;28;20166;-76
2023/08/02 11:13:14;;;;;;;5.07;2.38;;;26.10;99.40;;;;;;4946648;28;20035;-77
2023/08/02 11:15:43;;;;;;;5.78;1.52;;;26.30;99.90;;;;;;4949853;28;20094;-76
2023/08/02 11:18:09;;;;;;;4.82;2.35;;;26.30;99.50;;;;;;4948507;29;20054;-76
2023/08/02 11:20:37;;;;;;;6.18;2.30;;;26.40;98.90;;;;;;4944716;29;20043;-76
2023/08/02 11:23:24;;;;;;;5.95;2.60;;;26.20;99.20;;;;;;4949473;29;20019;-76
2023/08/02 11:25:50;;;;;;;10.35;2.50;;;26.70;99.10;;;;;;4943990;28;20027;-77
2023/08/02 11:28:16;;;;;;;4.75;2.17;;;26.90;99.50;;;;;;4949182;29;20031;-77
2023/08/02 11:30:43;;;;;;;6.25;1.98;;;26.80;99.90;;;;;;4943050;29;20074;-76
2023/08/02 11:33:09;;;;;;;4.88;2.65;;;27.00;99.20;;;;;;4948306;28;20049;-76
2023/08/02 11:35:34;;;;;;;7.28;2.55;;;26.80;99.20;;;;;;4949119;28;20121;-76
2023/08/02 11:38:00;;;;;;;5.80;2.42;;;27.10;98.60;;;;;;4948188;29;20031;-75
2023/08/02 11:40:36;;;;;;;3.50;1.98;;;27.20;98.60;;;;;;4944253;29;20041;-74
2023/08/02 11:43:02;;;;;;;5.25;2.03;;;27.00;98.60;;;;;;4949085;28;20027;-75
2023/08/02 11:45:29;;;;;;;3.53;2.03;;;26.80;99.00;;;;;;4948696;29;20031;-75
2023/08/02 11:47:55;;;;;;;4.97;2.20;;;27.10;98.70;;;;;;4946663;28;20039;-75
2023/08/02 11:50:25;;;;;;;5.15;2.10;;;27.30;99.10;;;;;;5080960;23;20069;-78
2023/08/02 11:52:51;;;;;;;5.05;2.15;;;27.30;98.90;;;;;;4967475;28;20040;-77
2023/08/02 11:57:53;;;;;;;6.65;3.28;;;27.30;99.80;;;;;;5006539;23;20058;-77
2023/08/02 12:00:19;;;;;;;6.53;2.67;;;27.50;99.90;;;;;;4963293;28;20062;-78
2023/08/02 12:02:46;;;;;;;3.95;2.38;;;27.50;98.80;;;;;;4987205;28;20594;-78
2023/08/02 12:05:21;;;;;;;3.72;1.95;;;27.70;99.60;;;;;;4972517;28;20031;-78
2023/08/02 12:07:48;;;;;;;9.15;2.22;;;27.50;99.60;;;;;;4987134;28;20029;-79
2023/08/02 12:10:30;;;;;;;7.13;2.83;;;27.80;99.90;;;;;;4976415;28;20113;-79
2023/08/02 12:12:56;;;;;;;6.97;2.40;;;27.90;99.00;;;;;;4983304;28;20025;-78
2023/08/02 12:15:22;;;;;;;5.63;2.55;;;27.90;99.90;;;;;;4978193;28;20019;-77
2023/08/02 12:18:02;;;;;;;4.90;2.47;;;27.70;98.70;;;;;;4963362;28;20065;-79
2023/08/02 12:20:32;;;;;;;4.30;2.50;;;27.60;99.40;;;;;;4976893;28;20036;-78
2023/08/02 12:22:58;;;;;;;4.95;2.33;;;27.80;99.40;;;;;;4984975;28;20037;-78
2023/08/02 12:25:24;;;;;;;7.32;2.15;;;27.60;99.70;;;;;;4973807;28;20062;-79
2023/08/02 12:28:03;;;;;;;6.60;2.60;;;27.80;99.00;;;;;;4970918;28;20027;-78
2023/08/02 12:30:29;;;;;;;9.35;3.30;;;27.70;99.70;;;;;;4980406;28;20062;-78
2023/08/02 12:32:56;;;;;;;6.60;2.78;;;27.80;99.90;;;;;;4978656;28;20540;-79
2023/08/02 12:35:22;;;;;;;6.32;2.92;;;28.30;99.50;;;;;;4986200;28;20035;-78
2023/08/02 12:37:48;;;;;;;6.45;3.50;;;28.20;99.50;;;;;;4972593;28;20191;-82
2023/08/02 12:40:13;;;;;;;5.35;2.83;;;28.60;99.90;;;;;;4975775;28;20030;-78
2023/08/02 12:42:39;;;;;;;6.13;2.60;;;28.70;98.80;;;;;;4976907;28;20031;-79
2023/08/02 12:45:06;;;;;;;7.68;2.70;;;28.40;98.80;;;;;;4980023;28;20031;-79
2023/08/02 12:47:31;;;;;;;6.57;2.78;;;28.20;99.90;;;;;;4980588;28;20092;-78
2023/08/02 12:49:57;;;;;;;5.10;2.65;;;28.30;99.30;;;;;;4965790;28;20082;-77